Time;durP1;ratioP1;P1;durP2;ratioP2;P2;SDS_P1;SDS_P2;PMS_P1;PMS_P2;Temp;Humidity;BMP_temperature;BMP_pressure;BME280_temperature;BME280_humidity;BME280_pressure;Samples;Min_cycle;Max_cycle;Signal;HPM_P1;HPM_P2
2021/10/22 00:01:15;;;;;;;;;;;;;;;-144.99;100.00;52564.28;5070806;28;19977;-78
2021/10/22 00:03:41;;;;;;;;;;;;;;;-144.99;100.00;52578.53;5071977;28;19988;-79
2021/10/22 00:06:07;;;;;;;;;;;;;;;-144.99;100.00;52545.94;5069945;28;19977;-79
2021/10/22 00:08:34;;;;;;;;;;;;;;;-144.99;100.00;52529.63;5067501;28;19996;-79
2021/10/22 00:11:01;;;;;;;;;;;;;;;-144.99;100.00;52554.09;5067973;28;19973;-79
2021/10/22 00:13:28;;;;;;;;;;;;;;;-144.99;100.00;52554.09;5064091;28;19973;-79
2021/10/22 00:15:55;;;;;;;;;;;;;;;-144.99;100.00;52545.94;5068149;28;19977;-76
2021/10/22 00:18:21;;;;;;;;;;;;;;;-144.99;100.00;52537.78;5071697;28;19973;-78
2021/10/22 00:20:48;;;;;;;;;;;;;;;-144.99;100.00;52586.69;5068395;28;20447;-75
2021/10/22 00:23:14;;;;;;;;;;;;;;;-144.99;100.00;52543.91;5067965;28;19980;-75
2021/10/22 00:25:41;;;;;;;;;;;;;;;-144.99;100.00;52525.56;5067337;28;19988;-74
2021/10/22 00:28:07;;;;;;;;;;;;;;;-144.99;100.00;52554.09;5066689;28;20083;-72
2021/10/22 00:30:35;;;;;;;;;;;;;;;-144.99;100.00;52562.25;5070709;28;19981;-73
2021/10/22 00:33:01;;;;;;;;;;;;;;;-144.99;100.00;52570.38;5070952;28;20214;-74
2021/10/22 00:35:27;;;;;;;;;;;;;;;-144.99;100.00;52517.41;5069259;28;20370;-74
2021/10/22 00:37:54;;;;;;;;;;;;;;;-144.99;100.00;52570.38;5064368;28;19993;-74
2021/10/22 00:40:24;;;;;;;;;;;;;;;-144.99;100.00;52594.84;5068995;28;20466;-74
2021/10/22 00:42:51;;;;;;;;;;;;;;;-144.99;100.00;52566.31;5062940;28;19980;-74
2021/10/22 00:45:17;;;;;;;;;;;;;;;-144.99;100.00;52543.91;5060465;28;19981;-75
2021/10/22 00:47:45;;;;;;;;;;;;;;;-144.99;100.00;52564.28;5066889;28;20335;-74
2021/10/22 00:50:11;;;;;;;;;;;;;;;-144.99;100.00;52545.94;5066939;28;19981;-77
2021/10/22 00:52:39;;;;;;;;;;;;;;;-144.99;100.00;52594.84;5069586;28;20004;-74
2021/10/22 00:55:06;;;;;;;;;;;;;;;-144.99;100.00;52578.53;5069084;28;19999;-77
2021/10/22 00:57:32;;;;;;;;;;;;;;;-144.99;100.00;52570.38;5061327;28;20058;-75
2021/10/22 00:59:58;;;;;;;;;;;;;;;-144.99;100.00;52578.53;5068076;28;20009;-73
2021/10/22 01:02:24;;;;;;;;;;;;;;;-144.99;100.00;52584.66;5068367;28;19980;-76
2021/10/22 01:04:52;;;;;;;;;;;;;;;-144.99;100.00;52562.25;5073634;28;19988;-79
2021/10/22 01:07:18;;;;;;;;;;;;;;;-144.99;100.00;52566.31;5061929;28;19993;-79
2021/10/22 01:09:45;;;;;;;;;;;;;;;-144.99;100.00;52537.78;5070200;28;20466;-78
2021/10/22 01:12:12;;;;;;;;;;;;;;;-144.99;100.00;52574.47;5063227;28;19977;-81
2021/10/22 01:14:39;;;;;;;;;;;;;;;-144.99;100.00;52537.78;5066082;28;20062;-80
2021/10/22 01:17:05;;;;;;;;;;;;;;;-144.99;100.00;52582.63;5071039;28;19989;-78
2021/10/22 01:19:32;;;;;;;;;;;;;;;-144.99;100.00;52558.16;5076271;28;19973;-78
2021/10/22 01:21:59;;;;;;;;;;;;;;;-144.99;100.00;52584.66;5068485;28;19973;-80
2021/10/22 01:24:26;;;;;;;;;;;;;;;-144.99;100.00;52550.00;5081454;28;19977;-80
2021/10/22 01:26:52;;;;;;;;;;;;;;;-144.99;100.00;52580.59;5074535;28;20000;-78
2021/10/22 01:29:20;;;;;;;;;;;;;;;-144.99;100.00;52594.84;5063030;28;19973;-76
2021/10/22 01:31:46;;;;;;;;;;;;;;;-144.99;100.00;52590.78;5069546;28;20019;-76
2021/10/22 01:34:13;;;;;;;;;;;;;;;-144.99;100.00;52560.19;5070907;28;19924;-79
2021/10/22 01:36:39;;;;;;;;;;;;;;;-144.99;100.00;52578.53;5067965;28;20454;-78
2021/10/22 01:39:07;;;;;;;;;;;;;;;-144.99;100.00;52545.94;5070465;28;20425;-78
2021/10/22 01:41:33;;;;;;;;;;;;;;;-144.99;100.00;52547.97;5066444;28;20347;-77
2021/10/22 01:44:01;;;;;;;;;;;;;;;-144.99;100.00;52533.69;5062680;28;19973;-78
2021/10/22 01:46:28;;;;;;;;;;;;;;;-144.99;100.00;52570.38;5067476;28;20212;-79
2021/10/22 01:48:55;;;;;;;;;;;;;;;-144.99;100.00;52545.94;5060198;28;19987;-80
2021/10/22 01:51:21;;;;;;;;;;;;;;;-144.99;100.00;52539.81;5065697;28;19992;-79
2021/10/22 01:53:47;;;;;;;;;;;;;;;-144.99;100.00;52562.25;5070015;28;19981;-79
2021/10/22 01:56:15;;;;;;;;;;;;;;;-144.99;100.00;52570.38;5059491;28;19980;-79
2021/10/22 01:58:41;;;;;;;;;;;;;;;-144.99;100.00;52590.78;5064254;28;19981;-78
2021/10/22 02:01:08;;;;;;;;;;;;;;;-144.99;100.00;52541.84;5065137;28;19973;-79
2021/10/22 02:03:34;;;;;;;;;;;;;;;-144.99;100.00;52582.63;5066154;28;19984;-78
2021/10/22 02:06:01;;;;;;;;;;;;;;;-144.99;100.00;52545.94;5066552;28;20012;-81
2021/10/22 02:08:27;;;;;;;;;;;;;;;-144.99;100.00;52556.13;5066141;28;19999;-79
2021/10/22 02:10:54;;;;;;;;;;;;;;;-144.99;100.00;52547.97;5070142;28;19973;-78
2021/10/22 02:13:22;;;;;;;;;;;;;;;-144.99;100.00;52558.16;5060332;28;20022;-79
2021/10/22 02:15:49;;;;;;;;;;;;;;;-144.99;100.00;52545.94;5060131;28;19993;-80
2021/10/22 02:18:15;;;;;;;;;;;;;;;-144.99;100.00;52572.44;5068718;28;19988;-79
2021/10/22 02:20:41;;;;;;;;;;;;;;;-144.99;100.00;52562.25;5060924;28;20000;-79
2021/10/22 02:23:08;;;;;;;;;;;;;;;-144.99;100.00;52521.47;5069108;28;19991;-78
2021/10/22 02:25:34;;;;;;;;;;;;;;;-144.99;100.00;52537.78;5069234;28;20382;-77
2021/10/22 02:28:00;;;;;;;;;;;;;;;-144.99;100.00;52529.63;5058895;28;20050;-78
2021/10/22 02:30:28;;;;;;;;;;;;;;;-144.99;100.00;52533.69;5062330;28;20133;-77
2021/10/22 02:32:55;;;;;;;;;;;;;;;-144.99;100.00;52541.84;5065390;28;19981;-77
2021/10/22 02:35:21;;;;;;;;;;;;;;;-144.99;100.00;52539.81;5067521;28;20000;-80
2021/10/22 02:37:48;;;;;;;;;;;;;;;-144.99;100.00;52558.16;5057518;28;20130;-78
2021/10/22 02:40:14;;;;;;;;;;;;;;;-144.99;100.00;52550.00;5065716;28;20065;-79
2021/10/22 02:42:41;;;;;;;;;;;;;;;-144.99;100.00;52590.78;5070744;28;19977;-78
2021/10/22 02:45:07;;;;;;;;;;;;;;;-144.99;100.00;52594.84;5063160;28;19981;-77
2021/10/22 02:47:35;;;;;;;;;;;;;;;-144.99;100.00;52539.81;5064322;28;19993;-79
2021/10/22 02:50:02;;;;;;;;;;;;;;;-144.99;100.00;52562.25;5071904;28;19996;-78
2021/10/22 02:52:29;;;;;;;;;;;;;;;-144.99;100.00;52529.63;5061034;28;20045;-78
2021/10/22 02:54:55;;;;;;;;;;;;;;;-144.99;100.00;52566.31;5070484;28;20524;-76
2021/10/22 02:57:22;;;;;;;;;;;;;;;-144.99;100.00;52550.00;5067403;28;19988;-81
2021/10/22 02:59:48;;;;;;;;;;;;;;;-144.99;100.00;52584.66;5070097;28;19983;-78
2021/10/22 03:02:14;;;;;;;;;;;;;;;-144.99;100.00;52558.16;5072182;28;19973;-79
2021/10/22 03:04:42;;;;;;;;;;;;;;;-144.99;100.00;52539.81;5065353;28;20361;-78
2021/10/22 03:07:08;;;;;;;;;;;;;;;-144.99;100.00;52592.81;5067452;28;19997;-76
2021/10/22 03:09:35;;;;;;;;;;;;;;;-144.99;100.00;52574.47;5061912;28;19984;-80
2021/10/22 03:12:01;;;;;;;;;;;;;;;-144.99;100.00;52582.63;5066415;28;19960;-79
2021/10/22 03:14:28;;;;;;;;;;;;;;;-144.99;100.00;52541.84;5065002;28;20034;-79
2021/10/22 03:16:54;;;;;;;;;;;;;;;-144.99;100.00;52525.56;5059125;28;19997;-78
2021/10/22 03:19:20;;;;;;;;;;;;;;;-144.99;100.00;52545.94;5075249;28;20435;-81
2021/10/22 03:21:48;;;;;;;;;;;;;;;-144.99;100.00;52631.53;5072081;28;19977;-79
2021/10/22 03:24:14;;;;;;;;;;;;;;;-144.99;100.00;52570.38;5066876;28;19983;-80
2021/10/22 03:26:41;;;;;;;;;;;;;;;-144.99;100.00;52600.97;5071288;28;19992;-80
2021/10/22 03:29:07;;;;;;;;;;;;;;;-144.99;100.00;52545.94;5071362;28;19977;-77
2021/10/22 03:31:35;;;;;;;;;;;;;;;-144.99;100.00;52547.97;5075183;28;20048;-77
2021/10/22 03:34:01;;;;;;;;;;;;;;;-144.99;100.00;52545.94;5087082;28;19977;-82
2021/10/22 03:36:28;;;;;;;;;;;;;;;-144.99;100.00;52515.34;5073934;28;20028;-78
2021/10/22 03:38:56;;;;;;;;;;;;;;;-144.99;100.00;52586.69;5090613;28;20038;-76
2021/10/22 03:41:22;;;;;;;;;;;;;;;-144.99;100.00;52537.78;5077643;28;19981;-78
2021/10/22 03:43:49;;;;;;;;;;;;;;;-144.99;100.00;52570.38;5070756;28;19981;-79
2021/10/22 03:46:15;;;;;;;;;;;;;;;-144.99;100.00;52529.63;5072614;28;20541;-76
2021/10/22 03:48:42;;;;;;;;;;;;;;;-144.99;100.00;52547.97;5063666;28;19977;-76
2021/10/22 03:51:08;;;;;;;;;;;;;;;-144.99;100.00;52533.69;5066174;28;20064;-76
2021/10/22 03:53:35;;;;;;;;;;;;;;;-144.99;100.00;52545.94;5069225;28;19988;-77
2021/10/22 03:56:02;;;;;;;;;;;;;;;-144.99;100.00;52570.38;5068860;28;19993;-77
2021/10/22 03:58:29;;;;;;;;;;;;;;;-144.99;100.00;52531.66;5069420;28;19980;-77
2021/10/22 04:00:55;;;;;;;;;;;;;;;-144.99;100.00;52562.25;5059993;28;19984;-77
2021/10/22 04:03:21;;;;;;;;;;;;;;;-144.99;100.00;52539.81;5069936;28;20000;-77
2021/10/22 04:05:48;;;;;;;;;;;;;;;-144.99;100.00;52574.47;5059973;28;19981;-76
2021/10/22 04:08:16;;;;;;;;;;;;;;;-144.99;99.67;52513.31;5059674;28;19993;-79
2021/10/22 04:10:43;;;;;;;;;;;;;;;-144.99;100.00;52554.09;5067419;28;20328;-81
2021/10/22 04:13:11;;;;;;;;;;;;;;;-144.99;100.00;52541.84;5064503;28;19973;-77
2021/10/22 04:15:38;;;;;;;;;;;;;;;-144.99;99.74;52578.53;5062626;28;20459;-80
2021/10/22 04:18:05;;;;;;;;;;;;;;;-144.99;98.39;52545.94;5071744;28;20501;-77
2021/10/22 04:20:31;;;;;;;;;;;;;;;-144.99;98.51;52570.38;5070459;28;19977;-77
2021/10/22 04:22:59;;;;;;;;;;;;;;;-144.99;98.21;52541.84;5067186;28;19977;-76
2021/10/22 04:25:25;;;;;;;;;;;;;;;-144.99;98.52;52558.16;5069942;28;19966;-76
2021/10/22 04:27:51;;;;;;;;;;;;;;;-144.99;97.64;52562.25;5072245;28;19997;-78
2021/10/22 04:30:19;;;;;;;;;;;;;;;-144.99;96.97;52590.78;5069346;28;20011;-75
2021/10/22 04:32:45;;;;;;;;;;;;;;;-144.99;97.08;52578.53;5068797;28;19983;-75
2021/10/22 04:35:12;;;;;;;;;;;;;;;-144.99;96.67;52594.84;5065903;28;19989;-75
2021/10/22 04:37:48;;;;;;;;;;;;;;;-144.99;96.83;52588.75;5068218;28;20378;-75
2021/10/22 04:40:32;;;;;;;;;;;;;;;-144.99;98.08;52578.53;5066469;28;20008;-75
2021/10/22 04:43:00;;;;;;;;;;;;;;;-144.99;98.03;52550.00;5066393;28;19991;-76
2021/10/22 04:45:28;;;;;;;;;;;;;;;-144.99;98.82;52580.59;5069652;28;20027;-75
2021/10/22 04:47:54;;;;;;;;;;;;;;;-144.99;100.00;52558.16;5063176;28;20043;-74
2021/10/22 04:50:20;;;;;;;;;;;;;;;-144.99;100.00;52501.09;5068411;28;20046;-74
2021/10/22 04:52:53;;;;;;;;;;;;;;;-144.99;100.00;52517.41;5062559;28;20443;-76
2021/10/22 04:55:19;;;;;;;;;;;;;;;-144.99;100.00;52554.09;5056442;28;20092;-78
2021/10/22 04:57:45;;;;;;;;;;;;;;;-144.99;100.00;52570.38;5059930;28;19993;-77
2021/10/22 05:00:12;;;;;;;;;;;;;;;-144.99;100.00;52574.47;5064961;28;20003;-77
2021/10/22 05:02:39;;;;;;;;;;;;;;;-144.99;100.00;52550.00;5068301;28;20089;-75
2021/10/22 05:05:06;;;;;;;;;;;;;;;-144.99;100.00;52578.53;5069275;28;19953;-79
2021/10/22 05:07:32;;;;;;;;;;;;;;;-144.99;100.00;52568.34;5064544;28;20000;-75
2021/10/22 05:09:59;;;;;;;;;;;;;;;-144.99;100.00;52613.19;4365765;28;10000722;-74
2021/10/22 05:12:25;;;;;;;;;;;;;;;-144.99;100.00;52574.47;4715271;28;9999750;-75
2021/10/22 05:14:52;;;;;;;;;;;;;;;-144.99;100.00;52586.69;5054756;28;19977;-78
2021/10/22 05:17:19;;;;;;;;;;;;;;;-144.99;100.00;52562.25;5066130;28;19996;-79
2021/10/22 05:19:47;;;;;;;;;;;;;;;-144.99;100.00;52578.53;5066161;28;20442;-74
2021/10/22 05:22:13;;;;;;;;;;;;;;;-144.99;100.00;52570.38;5058053;28;19977;-75
2021/10/22 05:24:39;;;;;;;;;;;;;;;-144.99;100.00;52558.16;5066537;28;19981;-78
2021/10/22 05:27:06;;;;;;;;;;;;;;;-144.99;100.00;52586.69;5063120;28;20008;-72
2021/10/22 05:29:32;;;;;;;;;;;;;;;-144.99;100.00;52570.38;5061993;28;20238;-74
2021/10/22 05:31:59;;;;;;;;;;;;;;;-144.99;100.00;52590.78;5064487;28;19981;-77
2021/10/22 05:34:25;;;;;;;;;;;;;;;-144.99;100.00;52574.47;5065490;28;19955;-76
2021/10/22 05:36:53;;;;;;;;;;;;;;;-144.99;100.00;52523.50;5063860;28;20024;-74
2021/10/22 05:39:19;;;;;;;;;;;;;;;-144.99;100.00;52513.31;5067470;28;19988;-75
2021/10/22 05:41:46;;;;;;;;;;;;;;;-144.99;100.00;52525.56;5062066;28;20080;-74
2021/10/22 05:44:13;;;;;;;;;;;;;;;-144.99;100.00;52497.00;5055182;28;20355;-77
2021/10/22 05:46:39;;;;;;;;;;;;;;;-144.99;100.00;52570.38;5056186;28;20063;-75
2021/10/22 05:49:05;;;;;;;;;;;;;;;-144.99;100.00;52543.91;5059054;28;19980;-78
2021/10/22 05:51:32;;;;;;;;;;;;;;;-144.99;99.99;52568.34;5059848;28;20004;-79
2021/10/22 05:54:00;;;;;;;;;;;;;;;-144.99;99.66;52527.59;5069917;28;20442;-74
2021/10/22 05:56:26;;;;;;;;;;;;;;;-144.99;98.47;52574.47;5068482;28;20001;-77
2021/10/22 05:58:53;;;;;;;;;;;;;;;-144.99;98.69;52566.31;5061269;28;20000;-76
2021/10/22 06:01:19;;;;;;;;;;;;;;;-144.99;98.30;52541.84;5063431;28;20029;-82
2021/10/22 06:03:45;;;;;;;;;;;;;;;-144.99;98.49;52554.09;5056654;28;20063;-77
2021/10/22 06:06:12;;;;;;;;;;;;;;;-144.99;97.54;52566.31;5056967;28;20402;-81
2021/10/22 06:08:39;;;;;;;;;;;;;;;-144.99;96.61;52566.31;5060679;28;20024;-75
2021/10/22 06:11:10;;;;;;;;;;;;;;;-144.99;96.23;52515.34;5061854;28;19977;-74
2021/10/22 06:13:36;;;;;;;;;;;;;;;-144.99;95.35;52545.94;5048707;28;20063;-77
2021/10/22 06:16:03;;;;;;;;;;;;;;;-144.99;94.48;52531.66;5066600;28;19992;-75
2021/10/22 06:18:29;;;;;;;;;;;;;;;-144.99;95.33;52501.09;5070486;28;20337;-74
2021/10/22 06:21:00;;;;;;;;;;;;;;;-144.99;94.71;52562.25;5068158;28;19977;-76
2021/10/22 06:26:11;;;;;;;;;;;;;;;-144.99;94.87;52554.09;5062117;28;19988;-78
2021/10/22 06:28:38;;;;;;;;;;;;;;;-144.99;94.81;52545.94;5061470;28;19981;-79
2021/10/22 06:31:04;;;;;;;;;;;;;;;-144.99;94.32;52550.00;5063616;28;20371;-77
2021/10/22 06:33:30;;;;;;;;;;;;;;;-144.99;94.38;52556.13;5061535;28;20433;-78
2021/10/22 06:35:57;;;;;;;;;;;;;;;-144.99;94.35;52562.25;5066264;28;19997;-78
2021/10/22 06:38:23;;;;;;;;;;;;;;;-144.99;94.47;52533.69;5062708;28;20087;-76
2021/10/22 06:40:53;;;;;;;;;;;;;;;-144.99;94.27;52568.34;5070591;28;19996;-76
2021/10/22 06:43:21;;;;;;;;;;;;;;;-144.99;93.94;52537.78;5064896;28;19981;-77
2021/10/22 06:45:47;;;;;;;;;;;;;;;-144.99;93.66;52566.31;5066487;28;19970;-75
2021/10/22 06:48:13;;;;;;;;;;;;;;;-144.99;93.93;52562.25;5061943;28;20502;-77
2021/10/22 06:50:40;;;;;;;;;;;;;;;-144.99;94.10;52541.84;5068968;28;19981;-78
2021/10/22 06:53:07;;;;;;;;;;;;;;;-144.99;93.82;52517.41;5063377;28;19977;-75
2021/10/22 06:55:33;;;;;;;;;;;;;;;-144.99;95.62;52578.53;5069573;28;20054;-78
2021/10/22 06:58:00;;;;;;;;;;;;;;;-144.99;95.92;52570.38;5063916;28;19993;-75
2021/10/22 07:00:27;;;;;;;;;;;;;;;-144.99;96.06;52533.69;5068799;28;19988;-76
2021/10/22 07:02:55;;;;;;;;;;;;;;;-144.99;96.28;52523.50;5069991;28;19985;-77
2021/10/22 07:05:34;;;;;;;;;;;;;;;-144.99;95.91;52527.59;5069578;28;19977;-78
2021/10/22 07:08:00;;;;;;;;;;;;;;;-144.99;95.67;52541.84;5068051;28;20028;-75
2021/10/22 07:10:28;;;;;;;;;;;;;;;-144.99;96.03;52537.78;5069599;28;20095;-76
2021/10/22 07:12:54;;;;;;;;;;;;;;;-144.99;95.70;52550.00;5062897;28;19986;-76
2021/10/22 07:15:21;;;;;;;;;;;;;;;-144.99;96.66;52537.78;5062588;28;19980;-76
2021/10/22 07:17:48;;;;;;;;;;;;;;;-144.99;97.40;52523.50;5067178;28;20119;-76
2021/10/22 07:20:15;;;;;;;;;;;;;;;-144.99;97.89;52560.19;5067164;28;20423;-76
2021/10/22 07:22:48;;;;;;;;;;;;;;;-144.99;98.33;52521.47;5062009;28;19981;-77
2021/10/22 07:25:14;;;;;;;;;;;;;;;-144.99;97.89;52586.69;5067835;28;19985;-75
2021/10/22 07:27:41;;;;;;;;;;;;;;;-144.99;97.10;52550.00;5061775;28;20002;-76
2021/10/22 07:30:07;;;;;;;;;;;;;;;-144.99;96.64;52527.59;5057618;28;19997;-76
2021/10/22 07:32:34;;;;;;;;;;;;;;;-144.99;96.17;52554.09;5071396;28;19976;-77
2021/10/22 07:35:01;;;;;;;;;;;;;;;-144.99;95.67;52541.84;5061786;28;20494;-73
2021/10/22 07:37:28;;;;;;;;;;;;;;;-144.99;93.89;52525.56;5058682;28;19993;-76
2021/10/22 07:39:54;;;;;;;;;;;;;;;-144.99;94.09;52541.84;5068516;28;20454;-73
2021/10/22 07:42:21;;;;;;;;;;;;;;;-144.99;92.41;52537.78;5069323;28;20507;-73
2021/10/22 07:44:47;;;;;;;;;;;;;;;-144.99;91.35;52521.47;5068628;28;20067;-74
2021/10/22 07:47:14;;;;;;;;;;;;;;;-144.99;90.69;52566.31;5062085;28;19997;-76
2021/10/22 07:49:42;;;;;;;;;;;;;;;-144.99;90.53;52488.84;5070244;28;20137;-74
2021/10/22 07:52:11;;;;;;;;;;;;;;;-144.99;91.25;52545.94;5067790;28;20050;-77
2021/10/22 07:54:38;;;;;;;;;;;;;;;-144.99;91.09;52568.34;5068471;28;20449;-73
2021/10/22 07:57:04;;;;;;;;;;;;;;;-144.99;91.86;52582.63;5068032;28;19996;-75
2021/10/22 07:59:31;;;;;;;;;;;;;;;-144.99;92.08;52529.63;5065702;28;19985;-76
2021/10/22 08:01:57;;;;;;;;;;;;;;;-144.99;92.13;52521.47;5069545;28;20022;-74
2021/10/22 08:04:23;;;;;;;;;;;;;;;-144.99;91.37;52523.50;5067722;28;20160;-74
2021/10/22 08:06:50;;;;;;;;;;;;;;;-144.99;91.32;52537.78;5069699;28;20056;-75
2021/10/22 08:09:17;;;;;;;;;;;;;;;-144.99;91.04;52533.69;5069780;28;20056;-77
2021/10/22 08:11:44;;;;;;;;;;;;;;;-144.99;90.83;52488.84;5067667;28;20315;-75
2021/10/22 08:14:10;;;;;;;;;;;;;;;-144.99;90.12;52497.00;5054608;28;20003;-75
2021/10/22 08:16:36;;;;;;;;;;;;;;;-144.99;89.86;52525.56;5068389;28;20119;-76
2021/10/22 08:19:03;;;;;;;;;;;;;;;-144.99;89.99;52554.09;5064186;28;20010;-77
2021/10/22 08:21:55;;;;;;;;;;;;;;;-144.99;89.91;52513.31;5067983;28;20003;-75
2021/10/22 08:24:22;;;;;;;;;;;;;;;-144.99;90.48;52517.41;5067787;28;20117;-75
2021/10/22 08:26:49;;;;;;;;;;;;;;;-144.99;90.18;52533.69;5067364;28;20212;-78
2021/10/22 08:29:15;;;;;;;;;;;;;;;-144.99;90.12;52541.84;5065382;28;19985;-77
2021/10/22 08:31:41;;;;;;;;;;;;;;;-144.99;90.46;52497.00;5061909;28;19992;-77
2021/10/22 08:34:08;;;;;;;;;;;;;;;-144.99;93.10;52509.25;5067554;28;20431;-76
2021/10/22 08:36:34;;;;;;;;;;;;;;;-144.99;94.93;52554.09;5067667;28;20001;-76
2021/10/22 08:39:00;;;;;;;;;;;;;;;-144.99;96.08;52570.38;5067009;28;19988;-76
2021/10/22 08:41:28;;;;;;;;;;;;;;;-144.99;97.71;52566.31;5062372;28;19985;-75
2021/10/22 08:43:55;;;;;;;;;;;;;;;-144.99;100.00;52541.84;5062336;28;20004;-75
2021/10/22 08:46:22;;;;;;;;;;;;;;;-144.99;100.00;52525.56;5062223;28;20467;-74
2021/10/22 08:48:49;;;;;;;;;;;;;;;-144.99;100.00;52541.84;5068187;28;19988;-78
2021/10/22 08:51:18;;;;;;;;;;;;;;;-144.99;100.00;52513.31;5068359;28;19988;-75
2021/10/22 08:53:45;;;;;;;;;;;;;;;-144.99;100.00;52545.94;5067407;28;19985;-77
2021/10/22 08:56:11;;;;;;;;;;;;;;;-144.99;100.00;52519.44;5063339;28;19956;-75
2021/10/22 08:58:40;;;;;;;;;;;;;;;-144.99;100.00;52558.16;5068789;28;19985;-76
2021/10/22 09:01:07;;;;;;;;;;;;;;;-144.99;100.00;52550.00;5067532;28;20459;-76
2021/10/22 09:03:37;;;;;;;;;;;;;;;-144.99;99.32;52550.00;5068779;28;19984;-77
2021/10/22 09:06:04;;;;;;;;;;;;;;;-144.99;100.00;52578.53;5068316;28;20529;-76
2021/10/22 09:08:31;;;;;;;;;;;;;;;-144.99;100.00;52533.69;5071303;28;19992;-80
2021/10/22 09:10:58;;;;;;;;;;;;;;;-144.99;100.00;52570.38;5072191;28;20358;-78
2021/10/22 09:13:27;;;;;;;;;;;;;;;-144.99;100.00;52525.56;5066285;28;19981;-78
2021/10/22 09:15:56;;;;;;;;;;;;;;;-144.99;100.00;52590.78;5058614;28;19992;-78
2021/10/22 09:18:25;;;;;;;;;;;;;;;-144.99;100.00;52554.09;5066684;28;20107;-76
2021/10/22 09:20:52;;;;;;;;;;;;;;;-144.99;100.00;52543.91;5058295;28;19981;-77
2021/10/22 09:23:26;;;;;;;;;;;;;;;-144.99;100.00;52525.56;5065480;28;19977;-78
2021/10/22 09:25:53;;;;;;;;;;;;;;;-144.99;100.00;52497.00;5050679;28;20198;-78
2021/10/22 09:28:25;;;;;;;;;;;;;;;-144.99;100.00;52566.31;5065083;28;20479;-76
2021/10/22 09:30:52;;;;;;;;;;;;;;;-144.99;100.00;52492.94;5067001;28;19977;-74
2021/10/22 09:33:21;;;;;;;;;;;;;;;-144.99;100.00;52541.84;5066605;28;19984;-79
2021/10/22 09:35:49;;;;;;;;;;;;;;;-144.99;100.00;52533.69;5060178;28;20054;-73
2021/10/22 09:38:17;;;;;;;;;;;;;;;-144.99;100.00;52545.94;5059604;28;20390;-74
2021/10/22 09:40:44;;;;;;;;;;;;;;;-144.99;100.00;52533.69;5066975;28;20153;-76
2021/10/22 09:43:11;;;;;;;;;;;;;;;-144.99;100.00;52558.16;5053525;28;19996;-75
2021/10/22 09:45:37;;;;;;;;;;;;;;;-144.99;100.00;52523.50;5056884;28;20126;-75
2021/10/22 09:48:21;;;;;;;;;;;;;;;-144.99;100.00;52529.63;5053955;28;20001;-74
2021/10/22 09:50:49;;;;;;;;;;;;;;;-144.99;100.00;52554.09;5064436;28;19993;-74
2021/10/22 09:53:23;;;;;;;;;;;;;;;-144.99;100.00;52521.47;5066663;28;20226;-75
2021/10/22 09:56:00;;;;;;;;;;;;;;;-144.99;100.00;52509.25;5068000;28;20291;-75
2021/10/22 09:58:26;;;;;;;;;;;;;;;-144.99;100.00;52517.41;5070529;28;20000;-76
2021/10/22 10:01:54;;;;;;;;;;;;;;;-144.99;100.00;61100.13;5063188;28;19981;-76
2021/10/22 10:05:19;;;;;;;;;;;;;;;-144.99;100.00;61100.13;5060444;28;19985;-77
2021/10/22 10:08:45;;;;;;;;;;;;;;;-144.99;100.00;61100.13;5062031;28;20009;-76
2021/10/22 10:12:10;;;;;;;;;;;;;;;-144.99;100.00;61100.13;5062107;28;19977;-78
2021/10/22 10:15:35;;;;;;;;;;;;;;;-144.99;100.00;61100.13;5053607;28;19955;-76
2021/10/22 10:19:02;;;;;;;;;;;;;;;-144.99;100.00;61100.13;5052745;28;20004;-78
2021/10/22 10:22:28;;;;;;;;;;;;;;;-144.99;100.00;61100.13;5061240;28;19981;-75
2021/10/22 10:25:55;;;;;;;;;;;;;;;-144.99;100.00;61100.13;5066631;28;19980;-78
2021/10/22 10:29:29;;;;;;;;;;;;;;;-144.99;100.00;61100.13;5059218;28;20001;-77
2021/10/22 10:32:54;;;;;;;;;;;;;;;-144.99;100.00;61100.13;5060702;28;19987;-75
2021/10/22 10:36:33;;;;;;;;;;;;;;;-144.99;100.00;61100.13;5059711;28;20331;-78
2021/10/22 10:40:00;;;;;;;;;;;;;;;-144.99;100.00;61100.13;5054377;28;20471;-76
2021/10/22 10:43:27;;;;;;;;;;;;;;;-144.99;100.00;61100.13;5064223;28;19981;-79
2021/10/22 10:46:51;;;;;;;;;;;;;;;-144.99;100.00;61100.13;5054331;28;20466;-78
2021/10/22 10:50:18;;;;;;;;;;;;;;;-144.99;100.00;61100.13;5063532;28;19980;-76
2021/10/22 10:53:44;;;;;;;;;;;;;;;-144.99;100.00;61100.13;5066352;28;20053;-76
2021/10/22 10:57:22;;;;;;;;;;;;;;;-144.99;100.00;61100.13;5067416;28;20447;-76
2021/10/22 11:00:51;;;;;;;;;;;;;;;-144.99;100.00;61100.13;5058956;28;20046;-78
2021/10/22 11:04:16;;;;;;;;;;;;;;;-144.99;100.00;61100.13;5068644;28;20436;-77
2021/10/22 11:07:41;;;;;;;;;;;;;;;-144.99;100.00;61100.13;5070509;28;20011;-75
2021/10/22 11:11:09;;;;;;;;;;;;;;;-144.99;100.00;61100.13;5069416;28;19992;-76
2021/10/22 11:14:41;;;;;;;;;;;;;;;-144.99;100.00;61100.13;5054307;28;19987;-77
2021/10/22 11:18:08;;;;;;;;;;;;;;;-144.99;100.00;61100.13;5068089;28;20019;-75
2021/10/22 11:21:34;;;;;;;;;;;;;;;-144.99;100.00;61100.13;5064105;28;19992;-77
2021/10/22 11:24:59;;;;;;;;;;;;;;;-144.99;100.00;61100.13;5070113;28;19985;-77
2021/10/22 11:28:28;;;;;;;;;;;;;;;-144.99;100.00;61100.13;5069103;28;20231;-77
2021/10/22 11:31:56;;;;;;;;;;;;;;;-144.99;100.00;61100.13;5065544;28;19972;-76
2021/10/22 11:35:29;;;;;;;;;;;;;;;-144.99;100.00;61100.13;5064010;28;20450;-77
2021/10/22 11:38:54;;;;;;;;;;;;;;;-144.99;100.00;61100.13;5064899;28;20013;-75
2021/10/22 11:42:21;;;;;;;;;;;;;;;-144.99;100.00;61100.13;5061212;28;20079;-78
2021/10/22 11:45:50;;;;;;;;;;;;;;;-144.99;100.00;61100.13;5063283;28;20016;-77
2021/10/22 11:49:25;;;;;;;;;;;;;;;-144.99;100.00;61100.13;5077907;28;20000;-77
2021/10/22 11:52:59;;;;;;;;;;;;;;;-144.99;100.00;61100.13;5075384;28;19993;-76
2021/10/22 11:56:25;;;;;;;;;;;;;;;-144.99;100.00;61100.13;5069707;28;19984;-77
2021/10/22 11:59:52;;;;;;;;;;;;;;;-144.99;100.00;61100.13;5066341;28;19997;-76
2021/10/22 12:03:25;;;;;;;;;;;;;;;-144.99;100.00;61100.13;5068976;28;19981;-77
2021/10/22 12:06:51;;;;;;;;;;;;;;;-144.99;100.00;61100.13;5069606;28;19989;-77
2021/10/22 12:10:17;;;;;;;;;;;;;;;-144.99;100.00;61100.13;5070288;28;19977;-78
2021/10/22 12:13:43;;;;;;;;;;;;;;;-144.99;100.00;61100.13;5062535;28;19996;-80
2021/10/22 12:17:10;;;;;;;;;;;;;;;-144.99;100.00;61100.13;5063477;28;19970;-78
2021/10/22 12:20:35;;;;;;;;;;;;;;;-144.99;100.00;61100.13;5068990;28;20053;-75
2021/10/22 12:24:01;;;;;;;;;;;;;;;-144.99;100.00;61100.13;5068031;28;19977;-76
2021/10/22 12:27:28;;;;;;;;;;;;;;;-144.99;100.00;61100.13;5061380;28;20065;-79
2021/10/22 12:31:06;;;;;;;;;;;;;;;-144.99;100.00;61100.13;5067240;28;20009;-78
2021/10/22 12:34:33;;;;;;;;;;;;;;;-144.99;100.00;61100.13;5066309;28;19980;-78
2021/10/22 12:38:00;;;;;;;;;;;;;;;-144.99;100.00;61100.13;5056888;28;20526;-77
2021/10/22 12:41:27;;;;;;;;;;;;;;;-144.99;100.00;61100.13;5068460;28;20350;-77
2021/10/22 12:45:11;;;;;;;;;;;;;;;-144.99;100.00;61100.13;5059582;28;19981;-79
2021/10/22 12:48:37;;;;;;;;;;;;;;;-144.99;100.00;61100.13;5063720;28;20471;-79
2021/10/22 12:52:04;;;;;;;;;;;;;;;-144.99;100.00;61100.13;5067097;28;19981;-79
2021/10/22 12:55:29;;;;;;;;;;;;;;;-144.99;100.00;61100.13;5057059;28;19981;-79
2021/10/22 12:58:55;;;;;;;;;;;;;;;-144.99;100.00;61100.13;5054815;28;20304;-77
2021/10/22 13:02:25;;;;;;;;;;;;;;;-144.99;100.00;61100.13;5058105;28;20071;-77
2021/10/22 13:05:50;;;;;;;;;;;;;;;-144.99;100.00;61100.13;5067641;28;20049;-77
2021/10/22 13:13:04;;;;;;;;;;;;;;;-144.99;100.00;61100.13;5053370;28;20042;-77
2021/10/22 13:24:07;;;;;;;;;;;;;;;-144.99;100.00;61100.13;4981517;28;19926;-77
2021/10/22 13:27:33;;;;;;;;;;;;;;;-144.99;100.00;61100.13;5072129;28;19997;-79
2021/10/22 13:31:02;;;;;;;;;;;;;;;-144.99;100.00;61100.13;5066759;28;19982;-78
2021/10/22 13:34:27;;;;;;;;;;;;;;;-144.99;100.00;61100.13;5066574;28;19976;-79